createdAt,value
2023-01-04T00:00:46.756Z,102025.25
2023-01-04T00:05:52.379Z,102026.67
2023-01-04T00:11:08.659Z,102014.38
2023-01-04T00:16:17.519Z,102005.68
2023-01-04T00:21:28.397Z,102002.59
2023-01-04T00:26:36.113Z,101988.98
2023-01-04T00:31:42.375Z,101971.31
2023-01-04T00:36:48.111Z,101955.63
2023-01-04T00:42:00.107Z,101959.89
2023-01-04T00:47:03.579Z,101948.98
2023-01-04T00:52:09.895Z,101941.44
2023-01-04T00:57:15.423Z,101924.98
2023-01-04T01:02:21.047Z,101922.63
2023-01-04T01:07:26.625Z,101928.97
2023-01-04T01:12:32.158Z,101910.33
2023-01-04T01:17:37.675Z,101911.30
2023-01-04T01:22:43.401Z,101899.58
2023-01-04T01:27:48.785Z,101893.34
2023-01-04T01:32:54.237Z,101884.47
2023-01-04T01:37:59.709Z,101888.52
2023-01-04T01:43:05.136Z,101880.67
2023-01-04T01:48:16.720Z,101876.27
2023-01-04T01:53:23.503Z,101874.09
2023-01-04T01:58:34.676Z,101878.57
2023-01-04T02:03:44.722Z,101880.35
2023-01-04T02:08:51.018Z,101882.78
2023-01-04T02:14:15.978Z,101888.13
2023-01-04T02:19:45.518Z,101870.98
2023-01-04T02:25:15.142Z,101864.98
2023-01-04T02:30:48.112Z,101852.18
2023-01-04T02:36:05.132Z,101837.63
2023-01-04T02:41:31.821Z,101827.91
2023-01-04T02:46:40.545Z,101807.67
2023-01-04T02:51:46.445Z,101784.55
2023-01-04T02:57:17.913Z,101773.02
2023-01-04T03:03:13.166Z,101760.05
2023-01-04T03:08:36.534Z,101737.83
2023-01-04T03:13:45.879Z,101722.38
2023-01-04T03:18:54.568Z,101711.34
2023-01-04T03:24:07.084Z,101695.53
2023-01-04T03:29:39.722Z,101680.30
2023-01-04T03:35:03.589Z,101669.22
2023-01-04T03:40:44.980Z,101668.94
2023-01-04T03:46:11.443Z,101662.94
2023-01-04T03:51:21.210Z,101658.46
2023-01-04T03:56:29.597Z,101648.47
2023-01-04T04:01:36.273Z,101645.50
2023-01-04T04:06:59.972Z,101628.69
2023-01-04T04:12:05.469Z,101609.23
2023-01-04T04:17:10.837Z,101583.28
2023-01-04T04:22:16.438Z,101569.24
2023-01-04T04:27:21.824Z,101555.23
2023-01-04T04:32:27.542Z,101543.83
2023-01-04T04:37:34.359Z,101532.33
2023-01-04T04:42:39.946Z,101525.42
2023-01-04T04:47:45.438Z,101493.87
2023-01-04T04:52:55.736Z,101464.19
2023-01-04T04:57:58.036Z,101464.19
2023-01-04T05:03:04.150Z,101459.28
2023-01-04T05:08:09.848Z,101460.16
2023-01-04T05:13:15.407Z,101434.57
2023-01-04T05:18:23.251Z,101430.52
2023-01-04T05:23:28.779Z,101411.08
2023-01-04T05:28:34.231Z,101408.05
2023-01-04T05:33:39.752Z,101384.13
2023-01-04T05:38:45.291Z,101352.19
2023-01-04T05:43:50.750Z,101354.73
2023-01-04T05:48:56.140Z,101336.61
2023-01-04T05:54:01.636Z,101327.78
2023-01-04T05:59:07.013Z,101333.27
2023-01-04T06:04:12.514Z,101300.09
2023-01-04T06:09:18.280Z,101296.41
2023-01-04T06:14:23.673Z,101277.26
2023-01-04T06:19:29.291Z,101259.34
2023-01-04T06:24:35.091Z,101243.23
2023-01-04T06:29:40.529Z,101219.09
2023-01-04T06:34:46.057Z,101204.27
2023-01-04T06:39:51.501Z,101194.23
2023-01-04T06:44:56.863Z,101184.80
2023-01-04T06:50:02.480Z,101196.95
2023-01-04T06:55:10.784Z,101175.20
2023-01-04T07:00:17.059Z,101164.86
2023-01-04T07:05:22.506Z,101160.92
2023-01-04T07:10:28.118Z,101153.88
2023-01-04T07:15:38.349Z,101124.61
2023-01-04T07:20:41.340Z,101125.59
2023-01-04T07:25:46.786Z,101114.16
2023-01-04T07:30:52.344Z,101104.88
2023-01-04T07:36:01.544Z,101091.04
2023-01-04T07:41:07.266Z,101086.81
2023-01-04T07:46:12.910Z,101064.54
2023-01-04T07:51:18.373Z,101059.58
2023-01-04T07:56:23.880Z,101051.61
2023-01-04T08:01:29.793Z,101047.47
2023-01-04T08:06:36.933Z,101034.48
2023-01-04T08:11:42.556Z,101015.63
2023-01-04T08:16:48.271Z,101005.23
2023-01-04T08:21:53.831Z,100989.63
2023-01-04T08:26:59.582Z,100977.20
2023-01-04T08:32:06.076Z,100966.39
2023-01-04T08:37:11.485Z,100958.44
2023-01-04T08:42:24.789Z,100960.17
2023-01-04T08:47:24.081Z,100952.19
2023-01-04T08:52:29.453Z,100952.36
2023-01-04T08:57:36.568Z,100935.50
2023-01-04T09:02:42.392Z,100917.91
2023-01-04T09:07:48.186Z,100922.16
2023-01-04T09:12:53.857Z,100906.48
2023-01-04T09:18:30.727Z,100896.59
2023-01-04T09:23:06.523Z,100889.72
2023-01-04T09:28:11.973Z,100880.13
2023-01-04T09:33:17.389Z,100867.30
2023-01-04T09:38:22.840Z,100846.61
2023-01-04T09:43:31.311Z,100839.34
2023-01-04T09:48:41.221Z,100823.08
2023-01-04T09:53:49.735Z,100798.73
2023-01-04T09:58:55.881Z,100806.25
2023-01-04T10:04:10.205Z,100778.86
2023-01-04T10:09:17.897Z,100769.55
2023-01-04T10:14:35.545Z,100744.22
2023-01-04T10:25:26.038Z,100728.03
2023-01-04T10:30:57.314Z,100702.77
2023-01-04T10:36:03.475Z,100691.27
2023-01-04T10:41:15.047Z,100681.12
2023-01-04T10:46:23.523Z,100664.47
2023-01-04T10:51:50.394Z,100646.84
2023-01-04T10:57:11.740Z,100626.02
2023-01-04T11:02:29.599Z,100598.47
2023-01-04T11:07:43.783Z,100585.77
2023-01-04T11:12:49.538Z,100579.11
2023-01-04T11:17:55.565Z,100566.52
2023-01-04T11:23:18.906Z,100540.30
2023-01-04T11:28:34.037Z,100525.28
2023-01-04T11:34:00.419Z,100529.45
2023-01-04T11:39:09.229Z,100512.85
2023-01-04T11:44:17.659Z,100508.55
2023-01-04T11:49:23.036Z,100497.20
2023-01-04T11:54:28.512Z,100460.08
2023-01-04T11:59:34.473Z,100467.09
2023-01-04T12:04:40.000Z,100457.57
2023-01-04T12:09:45.527Z,100454.33
2023-01-04T12:14:51.870Z,100450.73
2023-01-04T12:20:00.335Z,100440.44
2023-01-04T12:25:09.003Z,100450.64
2023-01-04T12:30:17.428Z,100441.09
2023-01-04T12:35:57.420Z,100413.85
2023-01-04T12:41:03.160Z,100388.72
2023-01-04T12:46:49.563Z,100387.00
2023-01-04T12:52:48.349Z,100377.58
2023-01-04T12:57:24.977Z,100360.80
2023-01-04T13:02:35.619Z,100352.24
2023-01-04T13:07:52.930Z,100338.83
2023-01-04T13:13:04.083Z,100336.77
2023-01-04T13:18:21.778Z,100324.48
2023-01-04T13:23:28.791Z,100307.59
2023-01-04T13:28:36.256Z,100305.19
2023-01-04T13:33:43.296Z,100295.34
2023-01-04T13:38:48.813Z,100322.34
2023-01-04T13:44:00.155Z,100290.66
2023-01-04T13:49:06.034Z,100293.79
2023-01-04T13:54:28.954Z,100288.28
2023-01-04T13:59:32.716Z,100278.66
2023-01-04T14:04:38.360Z,100269.89
2023-01-04T14:09:49.517Z,100272.20
2023-01-04T14:14:59.601Z,100250.70
2023-01-04T14:20:16.902Z,100249.06
2023-01-04T14:25:48.123Z,100243.34
2023-01-04T14:30:59.936Z,100233.30
2023-01-04T14:36:11.883Z,100223.84
2023-01-04T14:41:20.585Z,100227.58
2023-01-04T14:46:26.550Z,100223.39
2023-01-04T14:51:38.415Z,100222.45
2023-01-04T14:56:44.014Z,100219.59
2023-01-04T15:01:49.483Z,100188.63
2023-01-04T15:06:58.034Z,100206.17
2023-01-04T15:12:03.559Z,100204.37
2023-01-04T15:17:10.505Z,100195.98
2023-01-04T15:22:16.076Z,100189.80
2023-01-04T15:27:24.473Z,100193.30
2023-01-04T15:32:28.607Z,100186.36
2023-01-04T15:37:34.069Z,100182.64
2023-01-04T15:42:57.670Z,100176.80
2023-01-04T15:48:05.820Z,100170.61
2023-01-04T15:53:12.023Z,100163.77
2023-01-04T15:58:17.391Z,100160.43
2023-01-04T16:03:22.947Z,100160.23
2023-01-04T16:08:28.520Z,100162.13
2023-01-04T16:13:34.658Z,100155.92
2023-01-04T16:18:42.022Z,100139.71
2023-01-04T16:23:55.888Z,100127.73
2023-01-04T16:29:01.058Z,100122.17
2023-01-04T16:34:07.215Z,100131.51
2023-01-04T16:39:13.079Z,100126.64
2023-01-04T16:44:20.336Z,100129.79
2023-01-04T16:49:26.032Z,100122.53
2023-01-04T16:54:31.631Z,100112.70
2023-01-04T16:59:37.212Z,100102.31
2023-01-04T17:04:42.668Z,100109.42
2023-01-04T17:09:49.783Z,100099.39
2023-01-04T17:15:23.451Z,100087.04
2023-01-04T17:20:04.729Z,100082.51
2023-01-04T17:25:10.731Z,100066.48
2023-01-04T17:30:16.515Z,100061.81
2023-01-04T17:35:22.053Z,100050.17
2023-01-04T17:40:27.672Z,100047.83
2023-01-04T17:45:34.114Z,100055.80
2023-01-04T17:50:39.666Z,100058.80
2023-01-04T17:55:45.210Z,100048.06
2023-01-04T18:00:50.610Z,100042.52
2023-01-04T18:06:15.551Z,100018.95
2023-01-04T18:11:08.006Z,100025.53
2023-01-04T18:16:24.393Z,100010.83
2023-01-04T18:21:31.043Z,99998.54
2023-01-04T18:27:01.990Z,99993.87
2023-01-04T18:31:44.055Z,99971.92
2023-01-04T18:36:49.655Z,99977.44
2023-01-04T18:41:55.185Z,99969.15
2023-01-04T18:47:00.740Z,99968.02
2023-01-04T18:52:06.603Z,99962.37
2023-01-04T18:57:12.690Z,99945.11
2023-01-04T19:02:20.687Z,99944.80
2023-01-04T19:07:26.709Z,99931.38
2023-01-04T19:12:32.243Z,99935.76
2023-01-04T19:17:38.790Z,99933.15
2023-01-04T19:22:44.378Z,99925.20
2023-01-04T19:27:49.930Z,99923.86
2023-01-04T19:32:55.468Z,99924.02
2023-01-04T19:38:01.889Z,99908.30
2023-01-04T19:43:07.807Z,99903.04
2023-01-04T19:48:13.352Z,99895.40
2023-01-04T19:53:18.795Z,99893.91
2023-01-04T19:58:24.202Z,99903.27
2023-01-04T20:03:29.823Z,99905.83
2023-01-04T20:08:35.775Z,99895.34
2023-01-04T20:13:41.685Z,99934.41
2023-01-04T20:18:47.932Z,99932.96
2023-01-04T20:23:53.595Z,99941.09
2023-01-04T20:28:59.136Z,99912.72
2023-01-04T20:34:04.658Z,99892.94
2023-01-04T20:39:10.213Z,99897.97
2023-01-04T20:44:15.610Z,99898.20
2023-01-04T20:49:21.991Z,99888.05
2023-01-04T20:54:27.438Z,99870.45
2023-01-04T20:59:33.095Z,99874.08
2023-01-04T21:04:38.773Z,99871.89
2023-01-04T21:09:45.374Z,99860.12
2023-01-04T21:14:50.833Z,99858.84
2023-01-04T21:19:56.303Z,99862.53
2023-01-04T21:25:01.697Z,99859.16
2023-01-04T21:30:08.006Z,99854.14
2023-01-04T21:35:13.588Z,99857.24
2023-01-04T21:40:24.180Z,99842.33
2023-01-04T21:45:30.841Z,99859.06
2023-01-04T21:50:37.870Z,99849.86
2023-01-04T21:55:43.335Z,99852.38
2023-01-04T22:00:48.966Z,99854.46
2023-01-04T22:05:54.492Z,99855.53
2023-01-04T22:11:00.159Z,99849.48
2023-01-04T22:16:11.351Z,99850.34
2023-01-04T22:21:19.421Z,99846.12
2023-01-04T22:26:25.040Z,99836.92
2023-01-04T22:31:30.699Z,99837.89
2023-01-04T22:36:36.243Z,99831.58
2023-01-04T22:41:43.921Z,99826.97
2023-01-04T22:46:49.568Z,99823.56
2023-01-04T22:51:57.337Z,99818.70
2023-01-04T22:57:02.818Z,99818.73
2023-01-04T23:02:08.380Z,99816.97
2023-01-04T23:07:13.834Z,99815.80
2023-01-04T23:12:19.278Z,99805.81
2023-01-04T23:17:24.762Z,99814.36
2023-01-04T23:22:30.133Z,99819.92
2023-01-04T23:27:35.581Z,99810.56
2023-01-04T23:32:41.119Z,99821.13
2023-01-04T23:37:46.560Z,99812.10
2023-01-04T23:42:53.510Z,99823.28
2023-01-04T23:47:58.953Z,99816.13
2023-01-04T23:53:04.357Z,99816.50
2023-01-04T23:58:09.807Z,99804.36
